createdAt,value
2022-10-22T00:00:48.996Z,24.90
2022-10-22T00:03:16.102Z,24.85
2022-10-22T00:05:44.536Z,24.85
2022-10-22T00:08:11.631Z,24.86
2022-10-22T00:10:38.882Z,24.81
2022-10-22T00:13:06.134Z,24.81
2022-10-22T00:15:33.363Z,24.80
2022-10-22T00:18:00.458Z,24.80
2022-10-22T00:20:27.571Z,24.81
2022-10-22T00:22:56.006Z,24.77
2022-10-22T00:25:23.165Z,24.75
2022-10-22T00:27:50.285Z,24.75
2022-10-22T00:30:17.458Z,24.73
2022-10-22T00:32:45.583Z,24.68
2022-10-22T00:35:12.697Z,24.75
2022-10-22T00:37:39.785Z,24.74
2022-10-22T00:40:10.331Z,24.76
2022-10-22T00:42:37.841Z,24.79
2022-10-22T00:45:19.610Z,24.84
2022-10-22T00:47:52.040Z,24.87
2022-10-22T00:50:23.352Z,24.86
2022-10-22T00:52:50.748Z,24.85
2022-10-22T00:55:20.393Z,24.80
2022-10-22T00:57:48.514Z,24.79
2022-10-22T01:00:16.832Z,24.77
2022-10-22T01:03:04.667Z,24.77
2022-10-22T01:05:39.514Z,24.79
2022-10-22T01:08:14.225Z,24.76
2022-10-22T01:10:53.560Z,24.76
2022-10-22T01:13:31.843Z,24.76
2022-10-22T01:16:04.677Z,24.77
2022-10-22T01:18:39.097Z,24.71
2022-10-22T01:21:15.741Z,24.70
2022-10-22T01:24:24.254Z,24.69
2022-10-22T01:27:13.198Z,24.76
2022-10-22T01:29:46.543Z,24.76
2022-10-22T01:32:17.451Z,24.78
2022-10-22T01:34:49.168Z,24.81
2022-10-22T01:37:18.461Z,24.86
2022-10-22T01:39:47.694Z,24.85
2022-10-22T01:42:15.175Z,24.81
2022-10-22T01:44:43.664Z,24.80
2022-10-22T01:47:17.066Z,24.83
2022-10-22T01:50:17.746Z,24.77
2022-10-22T01:53:02.273Z,24.76
2022-10-22T01:55:33.478Z,24.77
2022-10-22T01:58:13.504Z,24.71
2022-10-22T02:00:57.063Z,24.74
2022-10-22T02:03:29.024Z,24.71
2022-10-22T02:06:01.126Z,24.69
2022-10-22T02:08:31.272Z,24.68
2022-10-22T02:11:00.275Z,24.70
2022-10-22T02:13:32.208Z,24.64
2022-10-22T02:16:02.156Z,24.72
2022-10-22T02:18:35.297Z,24.75
2022-10-22T02:21:05.973Z,24.76
2022-10-22T02:23:33.403Z,24.77
2022-10-22T02:26:06.146Z,24.80
2022-10-22T02:28:39.262Z,24.85
2022-10-22T02:31:15.261Z,24.83
2022-10-22T02:33:45.874Z,24.81
2022-10-22T02:36:14.387Z,24.77
2022-10-22T02:38:42.502Z,24.75
2022-10-22T02:41:10.352Z,24.76
2022-10-22T02:43:41.582Z,24.71
2022-10-22T02:46:11.332Z,24.71
2022-10-22T02:48:38.494Z,24.68
2022-10-22T02:51:05.971Z,24.70
2022-10-22T02:53:33.094Z,24.72
2022-10-22T02:56:00.201Z,24.69
2022-10-22T02:58:27.425Z,24.64
2022-10-22T03:00:54.615Z,24.65
2022-10-22T03:03:23.652Z,24.64
2022-10-22T03:05:50.820Z,24.60
2022-10-22T03:08:18.162Z,24.66
2022-10-22T03:10:45.590Z,24.68
2022-10-22T03:13:12.712Z,24.67
2022-10-22T03:15:39.862Z,24.68
2022-10-22T03:18:06.990Z,24.65
2022-10-22T03:20:35.522Z,24.63
2022-10-22T03:23:03.327Z,24.68
2022-10-22T03:25:31.967Z,24.68
2022-10-22T03:28:03.140Z,24.72
2022-10-22T03:30:30.249Z,24.73
2022-10-22T03:32:57.528Z,24.71
2022-10-22T03:35:24.773Z,24.70
2022-10-22T03:37:54.262Z,24.69
2022-10-22T03:40:21.510Z,24.67
2022-10-22T03:42:48.680Z,24.67
2022-10-22T03:45:15.845Z,24.64
2022-10-22T03:47:43.229Z,24.68
2022-10-22T03:50:10.976Z,24.65
2022-10-22T03:52:39.860Z,24.60
2022-10-22T03:55:09.560Z,24.59
2022-10-22T03:57:36.988Z,24.61
2022-10-22T04:00:06.206Z,24.64
2022-10-22T04:02:33.373Z,24.66
2022-10-22T04:05:00.569Z,24.66
2022-10-22T04:07:27.727Z,24.68
2022-10-22T04:09:54.844Z,24.68
2022-10-22T04:12:23.567Z,24.71
2022-10-22T04:14:50.650Z,24.67
2022-10-22T04:17:17.772Z,24.70
2022-10-22T04:19:44.902Z,24.72
2022-10-22T04:22:12.001Z,24.68
2022-10-22T04:24:39.100Z,24.70
2022-10-22T04:27:06.266Z,24.65
2022-10-22T04:29:34.782Z,24.67
2022-10-22T04:32:01.871Z,24.64
2022-10-22T04:34:29.433Z,24.63
2022-10-22T04:36:56.518Z,24.60
2022-10-22T04:39:23.605Z,24.64
2022-10-22T04:41:50.754Z,24.62
2022-10-22T04:44:18.278Z,24.62
2022-10-22T04:46:47.328Z,24.60
2022-10-22T04:49:14.461Z,24.60
2022-10-22T04:51:41.760Z,24.59
2022-10-22T04:54:08.866Z,24.65
2022-10-22T04:56:35.984Z,24.65
2022-10-22T04:59:05.487Z,24.66
2022-10-22T05:01:37.011Z,24.66
2022-10-22T05:04:11.040Z,24.66
2022-10-22T05:06:38.435Z,24.68
2022-10-22T05:09:08.217Z,24.67
2022-10-22T05:11:37.390Z,24.60
2022-10-22T05:14:06.476Z,24.67
2022-10-22T05:16:34.939Z,24.65
2022-10-22T05:19:02.969Z,24.64
2022-10-22T05:21:31.408Z,24.64
2022-10-22T05:23:59.073Z,24.62
2022-10-22T05:26:28.117Z,24.65
2022-10-22T05:28:55.901Z,24.62
2022-10-22T05:31:23.462Z,24.63
2022-10-22T05:33:50.594Z,24.65
2022-10-22T05:36:19.714Z,24.67
2022-10-22T05:38:48.846Z,24.65
2022-10-22T05:41:17.782Z,24.68
2022-10-22T05:43:45.643Z,24.70
2022-10-22T05:46:19.883Z,24.65
2022-10-22T05:48:50.219Z,24.65
2022-10-22T05:51:17.967Z,24.74
2022-10-22T05:53:45.081Z,24.72
2022-10-22T05:56:15.907Z,24.61
2022-10-22T05:58:45.664Z,24.51
2022-10-22T06:01:15.276Z,24.51
2022-10-22T06:03:43.408Z,24.47
2022-10-22T06:06:19.485Z,24.32
2022-10-22T06:08:47.800Z,24.37
2022-10-22T06:11:17.748Z,24.35
2022-10-22T06:13:44.893Z,24.40
2022-10-22T06:16:12.182Z,24.41
2022-10-22T06:18:39.320Z,24.41
2022-10-22T06:21:07.632Z,24.38
2022-10-22T06:23:35.142Z,24.42
2022-10-22T06:26:02.578Z,24.43
2022-10-22T06:28:32.093Z,24.45
2022-10-22T06:31:00.205Z,24.46
2022-10-22T06:33:28.182Z,24.51
2022-10-22T06:35:55.274Z,24.55
2022-10-22T06:38:22.400Z,24.56
2022-10-22T06:40:49.500Z,24.57
2022-10-22T06:43:16.569Z,24.60
2022-10-22T06:45:45.022Z,24.58
2022-10-22T06:48:12.124Z,24.59
2022-10-22T06:50:39.206Z,24.56
2022-10-22T06:53:06.431Z,24.54
2022-10-22T06:55:35.590Z,24.56
2022-10-22T06:58:02.792Z,24.56
2022-10-22T07:00:29.914Z,24.55
2022-10-22T07:02:59.299Z,24.58
2022-10-22T07:05:27.061Z,24.54
2022-10-22T07:07:54.163Z,24.50
2022-10-22T07:10:21.258Z,24.52
2022-10-22T07:12:48.351Z,24.51
2022-10-22T07:15:15.580Z,24.51
2022-10-22T07:17:42.712Z,24.54
2022-10-22T07:20:11.836Z,24.55
2022-10-22T07:22:39.437Z,24.54
2022-10-22T07:25:07.615Z,24.55
2022-10-22T07:27:34.758Z,24.58
2022-10-22T07:30:04.317Z,24.58
2022-10-22T07:32:31.428Z,24.60
2022-10-22T07:34:58.525Z,24.60
2022-10-22T07:37:27.001Z,24.60
2022-10-22T07:39:54.119Z,24.59
2022-10-22T07:42:21.335Z,24.62
2022-10-22T07:44:48.475Z,24.61
2022-10-22T07:47:15.728Z,24.62
2022-10-22T07:49:42.823Z,24.60
2022-10-22T07:52:09.954Z,24.63
2022-10-22T07:54:38.429Z,24.59
2022-10-22T07:57:05.523Z,24.59
2022-10-22T07:59:32.639Z,24.98
2022-10-22T08:01:59.726Z,24.99
2022-10-22T08:04:26.841Z,24.92
2022-10-22T08:06:53.945Z,24.94
2022-10-22T08:09:21.058Z,24.96
2022-10-22T08:11:50.244Z,24.91
2022-10-22T08:14:17.602Z,24.89
2022-10-22T08:16:44.818Z,24.89
2022-10-22T08:19:11.939Z,24.89
2022-10-22T08:21:39.501Z,24.86
2022-10-22T08:26:39.910Z,24.82
2022-10-22T08:29:08.694Z,24.82
2022-10-22T08:31:36.023Z,24.83
2022-10-22T08:34:03.334Z,24.82
2022-10-22T08:36:30.417Z,24.82
2022-10-22T08:38:57.536Z,24.81
2022-10-22T08:41:25.005Z,24.82
2022-10-22T08:44:07.065Z,24.82
2022-10-22T08:46:49.369Z,24.80
2022-10-22T08:49:20.442Z,24.83
2022-10-22T08:51:47.802Z,24.85
2022-10-22T08:54:30.491Z,24.90
2022-10-22T08:57:18.485Z,24.89
2022-10-22T08:59:49.632Z,24.90
2022-10-22T09:02:32.752Z,24.90
2022-10-22T09:05:13.347Z,24.91
2022-10-22T09:07:43.036Z,24.92
2022-10-22T09:10:12.748Z,24.89
2022-10-22T09:12:40.292Z,24.87
2022-10-22T09:15:12.604Z,24.86
2022-10-22T09:17:54.354Z,24.85
2022-10-22T09:20:27.916Z,24.86
2022-10-22T09:23:07.850Z,24.85
2022-10-22T09:25:36.674Z,24.84
2022-10-22T09:28:04.657Z,24.85
2022-10-22T09:30:34.731Z,24.84
2022-10-22T09:33:15.341Z,24.82
2022-10-22T09:35:47.473Z,24.85
2022-10-22T09:38:16.489Z,24.82
2022-10-22T09:40:45.771Z,24.80
2022-10-22T09:43:13.847Z,24.78
2022-10-22T09:45:42.225Z,24.77
2022-10-22T09:48:20.414Z,24.80
2022-10-22T09:50:49.887Z,24.79
2022-10-22T09:53:21.588Z,24.80
2022-10-22T09:55:52.044Z,24.80
2022-10-22T09:58:20.106Z,24.80
2022-10-22T10:00:51.904Z,24.81
2022-10-22T10:03:22.869Z,24.81
2022-10-22T10:05:53.194Z,24.82
2022-10-22T10:08:20.365Z,24.80
2022-10-22T10:10:50.815Z,24.79
2022-10-22T10:13:30.404Z,24.79
2022-10-22T10:16:06.031Z,24.80
2022-10-22T10:18:50.247Z,24.79
2022-10-22T10:21:27.697Z,24.79
2022-10-22T10:24:03.305Z,24.78
2022-10-22T10:26:37.403Z,24.83
2022-10-22T10:29:12.185Z,24.80
2022-10-22T10:32:02.771Z,24.84
2022-10-22T10:34:40.677Z,24.83
2022-10-22T10:37:18.747Z,24.77
2022-10-22T10:40:01.654Z,24.77
2022-10-22T10:42:36.513Z,24.79
2022-10-22T10:45:16.392Z,24.80
2022-10-22T10:48:20.930Z,24.79
2022-10-22T10:51:00.441Z,24.78
2022-10-22T10:53:42.092Z,24.80
2022-10-22T10:56:27.243Z,24.76
2022-10-22T10:59:02.660Z,24.80
2022-10-22T11:01:37.561Z,24.86
2022-10-22T11:04:21.523Z,24.89
2022-10-22T11:06:58.652Z,24.88
2022-10-22T11:09:34.259Z,24.93
2022-10-22T11:12:05.257Z,24.97
2022-10-22T11:14:39.195Z,24.98
2022-10-22T11:17:14.310Z,24.99
2022-10-22T11:19:55.611Z,25.01
2022-10-22T11:22:33.181Z,25.00
2022-10-22T11:25:05.704Z,25.02
2022-10-22T11:27:39.384Z,25.10
2022-10-22T11:30:13.662Z,25.10
2022-10-22T11:32:42.382Z,25.11
2022-10-22T11:35:15.318Z,25.18
2022-10-22T11:37:45.582Z,25.24
2022-10-22T11:40:16.733Z,25.28
2022-10-22T11:42:48.034Z,25.30
2022-10-22T11:45:29.478Z,25.29
2022-10-22T11:47:59.809Z,25.29
2022-10-22T11:50:43.175Z,25.29
2022-10-22T11:53:18.905Z,25.33
2022-10-22T11:55:48.109Z,25.34
2022-10-22T11:58:33.589Z,25.32
2022-10-22T12:01:27.656Z,25.33
2022-10-22T12:04:16.966Z,25.35
2022-10-22T12:06:54.406Z,25.34
2022-10-22T12:09:24.614Z,25.36
2022-10-22T12:11:52.183Z,25.34
2022-10-22T12:14:22.746Z,25.30
2022-10-22T12:16:57.296Z,25.33
2022-10-22T12:19:28.991Z,25.37
2022-10-22T12:21:59.426Z,25.40
2022-10-22T12:24:32.445Z,25.42
2022-10-22T12:26:59.678Z,25.45
2022-10-22T12:29:26.839Z,25.50
2022-10-22T12:31:54.226Z,25.54
2022-10-22T12:34:23.482Z,25.57
2022-10-22T12:36:52.800Z,25.61
2022-10-22T12:39:21.867Z,25.64
2022-10-22T12:41:53.342Z,25.65
2022-10-22T12:44:20.494Z,25.68
2022-10-22T12:46:53.022Z,25.70
2022-10-22T12:49:33.325Z,25.70
2022-10-22T12:52:03.077Z,25.70
2022-10-22T12:54:32.196Z,25.76
2022-10-22T12:57:00.847Z,25.77
2022-10-22T12:59:30.636Z,25.79
2022-10-22T13:01:57.954Z,25.79
2022-10-22T13:04:34.038Z,25.80
2022-10-22T13:07:19.883Z,25.79
2022-10-22T13:09:58.723Z,25.80
2022-10-22T13:12:35.121Z,25.78
2022-10-22T13:15:32.289Z,25.82
2022-10-22T13:18:02.984Z,25.88
2022-10-22T13:20:30.496Z,25.92
2022-10-22T13:22:58.574Z,25.92
2022-10-22T13:25:28.659Z,25.91
2022-10-22T13:27:59.339Z,25.91
2022-10-22T13:30:28.810Z,25.89
2022-10-22T13:32:57.387Z,25.89
2022-10-22T13:35:27.737Z,25.87
2022-10-22T13:37:54.949Z,25.84
2022-10-22T13:40:22.068Z,25.80
2022-10-22T13:42:49.213Z,25.78
2022-10-22T13:45:18.286Z,25.76
2022-10-22T13:47:49.450Z,25.76
2022-10-22T13:50:18.425Z,25.77
2022-10-22T13:52:49.413Z,25.83
2022-10-22T13:55:19.076Z,25.90
2022-10-22T13:57:46.574Z,25.86
2022-10-22T14:00:16.865Z,25.92
2022-10-22T14:02:47.707Z,25.93
2022-10-22T14:05:16.538Z,25.92
2022-10-22T14:07:44.375Z,25.96
2022-10-22T14:10:16.999Z,25.95
2022-10-22T14:12:44.153Z,25.87
2022-10-22T14:15:13.193Z,25.81
2022-10-22T14:17:42.336Z,25.81
2022-10-22T14:20:15.679Z,25.82
2022-10-22T14:22:42.787Z,25.77
2022-10-22T14:25:12.340Z,25.76
2022-10-22T14:27:39.746Z,25.81
2022-10-22T14:30:08.631Z,25.80
2022-10-22T14:32:35.779Z,25.84
2022-10-22T14:35:03.129Z,25.88
2022-10-22T14:37:31.880Z,25.87
2022-10-22T14:42:39.474Z,25.87
2022-10-22T14:45:11.325Z,25.84
2022-10-22T14:47:38.428Z,25.83
2022-10-22T14:50:06.301Z,25.82
2022-10-22T14:52:35.189Z,25.82
2022-10-22T14:55:02.342Z,25.77
2022-10-22T14:57:29.471Z,25.76
2022-10-22T14:59:56.576Z,25.78
2022-10-22T15:02:23.732Z,25.81
2022-10-22T15:04:50.947Z,25.81
2022-10-22T15:07:18.999Z,25.84
2022-10-22T15:09:47.650Z,25.80
2022-10-22T15:12:14.759Z,25.79
2022-10-22T15:14:41.869Z,25.76
2022-10-22T15:17:08.970Z,25.69
2022-10-22T15:19:36.196Z,25.66
2022-10-22T15:22:03.320Z,25.63
2022-10-22T15:24:30.434Z,25.62
2022-10-22T15:26:58.990Z,25.59
2022-10-22T15:29:26.142Z,25.56
2022-10-22T15:31:56.194Z,25.50
2022-10-22T15:34:26.295Z,25.44
2022-10-22T15:36:55.194Z,25.40
2022-10-22T15:39:22.858Z,25.38
2022-10-22T15:41:50.759Z,25.37
2022-10-22T15:44:21.365Z,25.31
2022-10-22T15:49:21.251Z,25.30
2022-10-22T15:51:48.746Z,25.27
2022-10-22T15:54:17.540Z,25.21
2022-10-22T15:56:45.081Z,25.21
2022-10-22T15:59:14.662Z,25.17
2022-10-22T16:01:43.665Z,25.15
2022-10-22T16:04:11.707Z,25.11
2022-10-22T16:06:41.886Z,25.09
2022-10-22T16:09:11.477Z,25.07
2022-10-22T16:11:39.546Z,25.05
2022-10-22T16:14:07.640Z,25.00
2022-10-22T16:16:36.519Z,25.00
2022-10-22T16:19:05.264Z,25.03
2022-10-22T16:21:32.371Z,24.95
2022-10-22T16:24:05.930Z,24.94
2022-10-22T16:26:33.882Z,24.95
2022-10-22T16:29:01.089Z,24.92
2022-10-22T16:31:28.441Z,24.96
2022-10-22T16:33:55.545Z,24.92
2022-10-22T16:36:24.393Z,24.94
2022-10-22T16:38:51.508Z,24.95
2022-10-22T16:41:20.489Z,25.00
2022-10-22T16:43:49.813Z,24.99
2022-10-22T16:46:19.314Z,25.02
2022-10-22T16:48:46.444Z,25.02
2022-10-22T16:51:15.277Z,25.01
2022-10-22T16:53:44.137Z,25.02
2022-10-22T16:56:12.749Z,25.05
2022-10-22T16:58:44.361Z,25.05
2022-10-22T17:01:11.569Z,25.06
2022-10-22T17:03:38.746Z,25.04
2022-10-22T17:06:06.453Z,25.05
2022-10-22T17:08:35.016Z,25.04
2022-10-22T17:11:07.568Z,25.06
2022-10-22T17:13:35.150Z,25.02
2022-10-22T17:16:02.811Z,25.04
2022-10-22T17:18:30.767Z,25.03
2022-10-22T17:20:57.884Z,25.00
2022-10-22T17:23:25.322Z,24.98
2022-10-22T17:25:58.109Z,24.95
2022-10-22T17:28:27.232Z,24.96
2022-10-22T17:31:03.350Z,24.99
2022-10-22T17:33:30.457Z,25.03
2022-10-22T17:35:57.823Z,25.04
2022-10-22T17:38:25.114Z,25.09
2022-10-22T17:40:52.545Z,25.08
2022-10-22T17:43:19.841Z,25.09
2022-10-22T17:45:48.467Z,25.09
2022-10-22T17:48:17.585Z,25.07
2022-10-22T17:50:48.287Z,25.06
2022-10-22T17:53:18.667Z,25.04
2022-10-22T17:55:45.765Z,25.05
2022-10-22T17:58:12.867Z,25.04
2022-10-22T18:00:40.049Z,25.01
2022-10-22T18:03:08.851Z,25.00
2022-10-22T18:05:36.137Z,24.98
2022-10-22T18:08:07.739Z,24.96
2022-10-22T18:10:39.414Z,24.97
2022-10-22T18:13:06.622Z,24.98
2022-10-22T18:15:33.837Z,25.01
2022-10-22T18:18:00.960Z,25.01
2022-10-22T18:20:29.511Z,25.04
2022-10-22T18:22:56.799Z,25.04
2022-10-22T18:25:24.007Z,25.05
2022-10-22T18:27:51.203Z,25.11
2022-10-22T18:30:18.311Z,25.18
2022-10-22T18:32:45.435Z,25.21
2022-10-22T18:35:12.619Z,25.17
2022-10-22T18:37:41.344Z,25.13
2022-10-22T18:40:14.362Z,25.13
2022-10-22T18:42:42.377Z,25.17
2022-10-22T18:45:10.367Z,25.14
2022-10-22T18:47:40.284Z,25.17
2022-10-22T18:50:08.605Z,25.20
2022-10-22T18:52:35.717Z,25.20
2022-10-22T18:55:05.312Z,25.17
2022-10-22T18:57:32.683Z,25.18
2022-10-22T18:59:59.782Z,25.15
2022-10-22T19:02:26.886Z,25.18
2022-10-22T19:04:53.998Z,25.22
2022-10-22T19:07:21.100Z,25.27
2022-10-22T19:09:48.301Z,25.29
2022-10-22T19:12:16.907Z,25.29
2022-10-22T19:14:44.010Z,25.30
2022-10-22T19:17:12.246Z,25.28
2022-10-22T19:19:39.615Z,25.34
2022-10-22T19:22:06.721Z,25.38
2022-10-22T19:24:34.384Z,25.31
2022-10-22T19:27:02.738Z,25.30
2022-10-22T19:29:31.221Z,25.29
2022-10-22T19:31:58.747Z,25.27
2022-10-22T19:34:25.927Z,25.24
2022-10-22T19:36:53.114Z,25.29
2022-10-22T19:39:20.317Z,25.30
2022-10-22T19:41:47.697Z,25.33
2022-10-22T19:44:14.827Z,25.32
2022-10-22T19:46:43.317Z,25.30
2022-10-22T19:49:11.108Z,25.30
2022-10-22T19:51:38.226Z,25.29
2022-10-22T19:54:07.426Z,25.29
2022-10-22T19:56:36.011Z,25.27
2022-10-22T19:59:04.214Z,25.24
2022-10-22T20:01:31.509Z,25.21
2022-10-22T20:04:00.338Z,25.21
2022-10-22T20:06:27.610Z,25.18
2022-10-22T20:08:56.188Z,25.19
2022-10-22T20:11:26.177Z,25.23
2022-10-22T20:13:53.541Z,25.28
2022-10-22T20:16:23.072Z,25.26
2022-10-22T20:18:51.024Z,25.28
2022-10-22T20:21:20.782Z,25.25
2022-10-22T20:23:51.791Z,25.25
2022-10-22T20:26:19.321Z,25.24
2022-10-22T20:28:46.675Z,25.24
2022-10-22T20:31:16.563Z,25.22
2022-10-22T20:33:43.686Z,25.20
2022-10-22T20:36:14.213Z,25.13
2022-10-22T20:38:42.903Z,25.18
2022-10-22T20:41:12.293Z,25.13
2022-10-22T20:43:39.419Z,25.10
2022-10-22T20:46:06.570Z,25.06
2022-10-22T20:48:33.677Z,25.10
2022-10-22T20:51:01.254Z,25.11
2022-10-22T20:53:28.418Z,25.14
2022-10-22T20:55:58.796Z,25.14
2022-10-22T20:58:27.197Z,25.13
2022-10-22T21:00:55.582Z,25.18
2022-10-22T21:03:23.216Z,25.19
2022-10-22T21:05:50.371Z,25.20
2022-10-22T21:08:17.720Z,25.19
2022-10-22T21:10:46.098Z,25.15
2022-10-22T21:13:15.089Z,25.13
2022-10-22T21:15:42.455Z,25.09
2022-10-22T21:18:09.576Z,25.09
2022-10-22T21:20:38.450Z,25.07
2022-10-22T21:23:05.867Z,25.06
2022-10-22T21:25:32.952Z,25.04
2022-10-22T21:28:00.165Z,25.02
2022-10-22T21:30:28.641Z,25.01
2022-10-22T21:32:55.780Z,25.01
2022-10-22T21:35:22.894Z,24.96
2022-10-22T21:37:50.039Z,24.98
2022-10-22T21:40:17.134Z,25.06
2022-10-22T21:42:44.322Z,25.09
2022-10-22T21:45:14.810Z,25.05
2022-10-22T21:47:44.509Z,25.08
2022-10-22T21:50:11.921Z,25.08
2022-10-22T21:52:39.015Z,25.12
2022-10-22T21:55:06.595Z,25.09
2022-10-22T21:57:33.698Z,25.10
2022-10-22T22:00:00.809Z,25.09
2022-10-22T22:02:31.154Z,25.07
2022-10-22T22:04:59.650Z,25.06
2022-10-22T22:07:26.735Z,25.05
2022-10-22T22:09:54.055Z,25.03
2022-10-22T22:12:21.192Z,25.00
2022-10-22T22:14:48.400Z,24.98
2022-10-22T22:17:15.744Z,24.97
2022-10-22T22:19:42.873Z,24.97
2022-10-22T22:22:11.363Z,24.96
2022-10-22T22:24:38.899Z,24.92
2022-10-22T22:27:06.297Z,24.89
2022-10-22T22:29:33.796Z,24.94
2022-10-22T22:32:00.882Z,24.98
2022-10-22T22:34:28.026Z,25.02
2022-10-22T22:36:55.132Z,24.99
2022-10-22T22:39:24.073Z,24.99
2022-10-22T22:41:51.761Z,25.04
2022-10-22T22:44:18.861Z,25.05
2022-10-22T22:46:45.972Z,25.04
2022-10-22T22:49:13.483Z,25.03
2022-10-22T22:51:40.799Z,25.05
2022-10-22T22:54:08.918Z,25.02
2022-10-22T22:56:38.277Z,24.98
2022-10-22T22:59:05.870Z,24.97
2022-10-22T23:01:34.551Z,24.95
2022-10-22T23:04:03.874Z,24.93
2022-10-22T23:06:33.413Z,24.90
2022-10-22T23:09:00.639Z,24.90
2022-10-22T23:11:28.951Z,24.89
2022-10-22T23:13:58.858Z,24.89
2022-10-22T23:16:27.642Z,24.87
2022-10-22T23:18:55.212Z,24.87
2022-10-22T23:21:24.475Z,24.90
2022-10-22T23:23:53.568Z,24.91
2022-10-22T23:26:23.927Z,24.94
2022-10-22T23:28:51.028Z,24.93
2022-10-22T23:31:20.800Z,24.99
2022-10-22T23:33:48.718Z,24.95
2022-10-22T23:36:15.892Z,24.99
2022-10-22T23:38:43.014Z,25.01
2022-10-22T23:41:10.382Z,24.98
2022-10-22T23:43:38.228Z,24.97
2022-10-22T23:46:06.838Z,24.99
2022-10-22T23:48:36.174Z,24.93
2022-10-22T23:51:04.484Z,24.92
2022-10-22T23:53:31.602Z,24.91
2022-10-22T23:56:03.630Z,24.88
2022-10-22T23:58:31.000Z,24.87
